Staffordville, New Jersey
Current Conditions -  °F | °C
As of 3:15 PM on Thursday 18 Dec 2014 (Local Time) from KMJX Reporting Station
Clear Clear  
Wind Chill: -1°   Ceiling: Unl
Heat Index:   Visibility: 10mi
Dew Point: -5°   Wind: 20mph
Humidity: 52%   Direction: 300°WNW
Pressure: 29.97"   Gusts: 24mph
Location:  39.6605°N, 74.2864°W
Report Text: KMJX 182015Z AUTO 30017G21KT 10SM CLR 04/M05 A2997 RMK AO1
Loading
Personal Weather Stations






























Interactive Weather Map New forecast layout! Learn more

10-Day Weather Forecast

Advertisements
Track Severe Weather on mobile